sensor_id;sensor_type;location;lat;lon;timestamp;P1;durP1;ratioP1;P2;durP2;ratioP2
64498;SDS011;51087;55.718;21.122;2023-05-23T00:00:06;8.35;;;3.38;;
64498;SDS011;51087;55.718;21.122;2023-05-23T00:02:32;9.02;;;3.00;;
64498;SDS011;51087;55.718;21.122;2023-05-23T00:04:58;8.52;;;3.13;;
64498;SDS011;51087;55.718;21.122;2023-05-23T00:07:27;6.00;;;3.00;;
64498;SDS011;51087;55.718;21.122;2023-05-23T00:09:52;7.07;;;2.97;;
64498;SDS011;51087;55.718;21.122;2023-05-23T00:12:18;10.27;;;2.83;;
64498;SDS011;51087;55.718;21.122;2023-05-23T00:14:44;7.05;;;3.13;;
64498;SDS011;51087;55.718;21.122;2023-05-23T00:17:09;7.13;;;3.40;;
64498;SDS011;51087;55.718;21.122;2023-05-23T00:19:35;8.88;;;3.28;;
64498;SDS011;51087;55.718;21.122;2023-05-23T00:22:00;10.95;;;3.30;;
64498;SDS011;51087;55.718;21.122;2023-05-23T00:24:27;7.72;;;3.60;;
64498;SDS011;51087;55.718;21.122;2023-05-23T00:26:52;8.32;;;3.78;;
64498;SDS011;51087;55.718;21.122;2023-05-23T00:29:18;4.80;;;2.95;;
64498;SDS011;51087;55.718;21.122;2023-05-23T00:31:44;10.93;;;3.75;;
64498;SDS011;51087;55.718;21.122;2023-05-23T00:34:13;7.07;;;3.17;;
64498;SDS011;51087;55.718;21.122;2023-05-23T00:36:39;12.95;;;3.35;;
64498;SDS011;51087;55.718;21.122;2023-05-23T00:39:06;8.82;;;3.33;;
64498;SDS011;51087;55.718;21.122;2023-05-23T00:41:32;12.60;;;3.53;;
64498;SDS011;51087;55.718;21.122;2023-05-23T00:43:58;12.07;;;3.45;;
64498;SDS011;51087;55.718;21.122;2023-05-23T00:46:24;8.75;;;3.17;;
64498;SDS011;51087;55.718;21.122;2023-05-23T00:48:54;15.65;;;3.45;;
64498;SDS011;51087;55.718;21.122;2023-05-23T00:51:20;11.60;;;3.40;;
64498;SDS011;51087;55.718;21.122;2023-05-23T00:53:46;18.15;;;3.38;;
64498;SDS011;51087;55.718;21.122;2023-05-23T00:56:12;18.63;;;3.85;;
64498;SDS011;51087;55.718;21.122;2023-05-23T00:58:37;9.82;;;3.20;;
64498;SDS011;51087;55.718;21.122;2023-05-23T01:01:04;13.20;;;3.25;;
64498;SDS011;51087;55.718;21.122;2023-05-23T01:03:30;9.18;;;3.33;;
64498;SDS011;51087;55.718;21.122;2023-05-23T01:05:56;8.77;;;3.22;;
64498;SDS011;51087;55.718;21.122;2023-05-23T01:08:21;6.65;;;3.22;;
64498;SDS011;51087;55.718;21.122;2023-05-23T01:10:47;8.55;;;3.13;;
64498;SDS011;51087;55.718;21.122;2023-05-23T01:15:44;7.60;;;3.58;;
64498;SDS011;51087;55.718;21.122;2023-05-23T01:18:23;10.57;;;3.30;;
64498;SDS011;51087;55.718;21.122;2023-05-23T01:20:53;7.50;;;3.15;;
64498;SDS011;51087;55.718;21.122;2023-05-23T01:28:58;5.85;;;3.08;;
64498;SDS011;51087;55.718;21.122;2023-05-23T01:31:34;6.03;;;3.28;;
64498;SDS011;51087;55.718;21.122;2023-05-23T01:34:01;11.27;;;3.40;;
64498;SDS011;51087;55.718;21.122;2023-05-23T01:36:27;7.55;;;3.58;;
64498;SDS011;51087;55.718;21.122;2023-05-23T01:38:53;7.03;;;3.50;;
64498;SDS011;51087;55.718;21.122;2023-05-23T01:41:18;4.85;;;3.33;;
64498;SDS011;51087;55.718;21.122;2023-05-23T01:43:44;10.23;;;3.30;;
64498;SDS011;51087;55.718;21.122;2023-05-23T01:46:10;9.65;;;4.15;;
64498;SDS011;51087;55.718;21.122;2023-05-23T01:48:37;12.23;;;3.65;;
64498;SDS011;51087;55.718;21.122;2023-05-23T01:51:03;9.95;;;3.50;;
64498;SDS011;51087;55.718;21.122;2023-05-23T01:53:29;9.60;;;3.25;;
64498;SDS011;51087;55.718;21.122;2023-05-23T01:55:55;8.25;;;3.20;;
64498;SDS011;51087;55.718;21.122;2023-05-23T01:58:21;10.00;;;3.90;;
64498;SDS011;51087;55.718;21.122;2023-05-23T02:00:46;10.52;;;3.47;;
64498;SDS011;51087;55.718;21.122;2023-05-23T02:03:12;8.75;;;3.78;;
64498;SDS011;51087;55.718;21.122;2023-05-23T02:05:38;11.73;;;3.60;;
64498;SDS011;51087;55.718;21.122;2023-05-23T02:08:03;13.07;;;3.38;;
64498;SDS011;51087;55.718;21.122;2023-05-23T02:10:28;10.77;;;3.45;;
64498;SDS011;51087;55.718;21.122;2023-05-23T02:12:54;8.00;;;3.40;;
64498;SDS011;51087;55.718;21.122;2023-05-23T02:15:19;11.93;;;3.40;;
64498;SDS011;51087;55.718;21.122;2023-05-23T02:17:45;6.28;;;3.40;;
64498;SDS011;51087;55.718;21.122;2023-05-23T02:20:13;13.23;;;3.42;;
64498;SDS011;51087;55.718;21.122;2023-05-23T02:22:38;7.57;;;3.40;;
64498;SDS011;51087;55.718;21.122;2023-05-23T02:25:04;7.57;;;3.65;;
64498;SDS011;51087;55.718;21.122;2023-05-23T02:27:30;13.60;;;3.28;;
64498;SDS011;51087;55.718;21.122;2023-05-23T02:29:55;7.35;;;3.45;;
64498;SDS011;51087;55.718;21.122;2023-05-23T02:32:21;10.75;;;3.80;;
64498;SDS011;51087;55.718;21.122;2023-05-23T02:34:46;11.73;;;3.80;;
64498;SDS011;51087;55.718;21.122;2023-05-23T02:37:14;8.07;;;3.60;;
64498;SDS011;51087;55.718;21.122;2023-05-23T02:39:40;16.05;;;3.90;;
64498;SDS011;51087;55.718;21.122;2023-05-23T02:42:06;8.23;;;3.60;;
64498;SDS011;51087;55.718;21.122;2023-05-23T02:44:32;8.25;;;3.25;;
64498;SDS011;51087;55.718;21.122;2023-05-23T02:46:57;6.22;;;3.70;;
64498;SDS011;51087;55.718;21.122;2023-05-23T02:49:22;9.48;;;3.63;;
64498;SDS011;51087;55.718;21.122;2023-05-23T02:51:48;5.28;;;3.10;;
64498;SDS011;51087;55.718;21.122;2023-05-23T02:54:13;10.57;;;3.50;;
64498;SDS011;51087;55.718;21.122;2023-05-23T02:56:39;13.25;;;3.75;;
64498;SDS011;51087;55.718;21.122;2023-05-23T02:59:04;10.27;;;3.72;;
64498;SDS011;51087;55.718;21.122;2023-05-23T03:01:30;7.18;;;3.50;;
64498;SDS011;51087;55.718;21.122;2023-05-23T03:03:55;12.18;;;3.92;;
64498;SDS011;51087;55.718;21.122;2023-05-23T03:06:20;13.35;;;3.92;;
64498;SDS011;51087;55.718;21.122;2023-05-23T03:08:46;9.40;;;3.90;;
64498;SDS011;51087;55.718;21.122;2023-05-23T03:11:12;11.80;;;3.85;;
64498;SDS011;51087;55.718;21.122;2023-05-23T03:13:37;11.05;;;4.05;;
64498;SDS011;51087;55.718;21.122;2023-05-23T03:16:03;7.85;;;3.78;;
64498;SDS011;51087;55.718;21.122;2023-05-23T03:18:28;9.68;;;3.65;;
64498;SDS011;51087;55.718;21.122;2023-05-23T03:20:54;6.78;;;3.83;;
64498;SDS011;51087;55.718;21.122;2023-05-23T03:23:19;8.55;;;3.40;;
64498;SDS011;51087;55.718;21.122;2023-05-23T03:25:44;13.60;;;5.68;;
64498;SDS011;51087;55.718;21.122;2023-05-23T03:28:10;17.48;;;4.05;;
64498;SDS011;51087;55.718;21.122;2023-05-23T03:30:39;14.55;;;3.60;;
64498;SDS011;51087;55.718;21.122;2023-05-23T03:33:04;8.95;;;4.13;;
64498;SDS011;51087;55.718;21.122;2023-05-23T03:35:30;9.73;;;3.40;;
64498;SDS011;51087;55.718;21.122;2023-05-23T03:37:56;19.25;;;4.03;;
64498;SDS011;51087;55.718;21.122;2023-05-23T03:40:21;8.50;;;3.88;;
64498;SDS011;51087;55.718;21.122;2023-05-23T03:42:47;15.27;;;3.85;;
64498;SDS011;51087;55.718;21.122;2023-05-23T03:45:13;5.93;;;3.22;;
64498;SDS011;51087;55.718;21.122;2023-05-23T03:47:39;8.50;;;3.90;;
64498;SDS011;51087;55.718;21.122;2023-05-23T03:50:04;9.05;;;3.88;;
64498;SDS011;51087;55.718;21.122;2023-05-23T03:52:30;11.15;;;3.88;;
64498;SDS011;51087;55.718;21.122;2023-05-23T03:54:56;12.70;;;3.33;;
64498;SDS011;51087;55.718;21.122;2023-05-23T03:57:21;7.93;;;3.75;;
64498;SDS011;51087;55.718;21.122;2023-05-23T03:59:47;9.38;;;3.65;;
64498;SDS011;51087;55.718;21.122;2023-05-23T04:02:12;10.70;;;3.55;;
64498;SDS011;51087;55.718;21.122;2023-05-23T04:04:37;9.73;;;4.65;;
64498;SDS011;51087;55.718;21.122;2023-05-23T04:07:03;8.50;;;3.83;;
64498;SDS011;51087;55.718;21.122;2023-05-23T04:09:29;9.52;;;3.67;;
64498;SDS011;51087;55.718;21.122;2023-05-23T04:11:55;10.93;;;3.58;;
64498;SDS011;51087;55.718;21.122;2023-05-23T04:14:20;11.65;;;5.18;;
64498;SDS011;51087;55.718;21.122;2023-05-23T04:16:46;9.18;;;3.70;;
64498;SDS011;51087;55.718;21.122;2023-05-23T04:19:12;11.10;;;4.78;;
64498;SDS011;51087;55.718;21.122;2023-05-23T04:21:37;8.43;;;4.43;;
64498;SDS011;51087;55.718;21.122;2023-05-23T04:24:02;12.70;;;4.90;;
64498;SDS011;51087;55.718;21.122;2023-05-23T04:26:28;20.80;;;5.32;;
64498;SDS011;51087;55.718;21.122;2023-05-23T04:28:53;34.42;;;5.35;;
64498;SDS011;51087;55.718;21.122;2023-05-23T04:31:19;13.88;;;4.28;;
64498;SDS011;51087;55.718;21.122;2023-05-23T04:33:48;15.23;;;4.85;;
64498;SDS011;51087;55.718;21.122;2023-05-23T04:36:14;15.32;;;4.05;;
64498;SDS011;51087;55.718;21.122;2023-05-23T04:38:39;17.40;;;3.85;;
64498;SDS011;51087;55.718;21.122;2023-05-23T04:41:08;9.95;;;3.75;;
64498;SDS011;51087;55.718;21.122;2023-05-23T04:43:36;13.38;;;4.15;;
64498;SDS011;51087;55.718;21.122;2023-05-23T04:46:09;13.60;;;4.00;;
64498;SDS011;51087;55.718;21.122;2023-05-23T04:48:34;12.85;;;4.78;;
64498;SDS011;51087;55.718;21.122;2023-05-23T04:51:01;16.13;;;3.58;;
64498;SDS011;51087;55.718;21.122;2023-05-23T04:53:30;9.73;;;3.70;;
64498;SDS011;51087;55.718;21.122;2023-05-23T04:55:55;11.55;;;3.63;;
64498;SDS011;51087;55.718;21.122;2023-05-23T04:58:21;12.07;;;3.67;;
64498;SDS011;51087;55.718;21.122;2023-05-23T05:00:46;22.65;;;3.45;;
64498;SDS011;51087;55.718;21.122;2023-05-23T05:03:11;19.00;;;6.18;;
64498;SDS011;51087;55.718;21.122;2023-05-23T05:05:37;14.63;;;4.38;;
64498;SDS011;51087;55.718;21.122;2023-05-23T05:08:02;13.38;;;3.85;;
64498;SDS011;51087;55.718;21.122;2023-05-23T05:10:28;17.05;;;4.18;;
64498;SDS011;51087;55.718;21.122;2023-05-23T05:12:53;16.52;;;3.63;;
64498;SDS011;51087;55.718;21.122;2023-05-23T05:15:18;19.58;;;3.83;;
64498;SDS011;51087;55.718;21.122;2023-05-23T05:17:44;11.27;;;3.83;;
64498;SDS011;51087;55.718;21.122;2023-05-23T05:20:10;13.85;;;3.85;;
64498;SDS011;51087;55.718;21.122;2023-05-23T05:22:36;10.43;;;3.95;;
64498;SDS011;51087;55.718;21.122;2023-05-23T05:25:04;10.27;;;3.60;;
64498;SDS011;51087;55.718;21.122;2023-05-23T05:27:33;12.32;;;3.45;;
64498;SDS011;51087;55.718;21.122;2023-05-23T05:29:58;19.48;;;3.50;;
64498;SDS011;51087;55.718;21.122;2023-05-23T05:32:29;13.13;;;4.20;;
64498;SDS011;51087;55.718;21.122;2023-05-23T05:34:58;15.27;;;3.30;;
64498;SDS011;51087;55.718;21.122;2023-05-23T05:37:27;14.90;;;3.70;;
64498;SDS011;51087;55.718;21.122;2023-05-23T05:39:53;15.52;;;3.53;;
64498;SDS011;51087;55.718;21.122;2023-05-23T05:42:22;9.07;;;3.63;;
64498;SDS011;51087;55.718;21.122;2023-05-23T05:44:47;16.48;;;3.45;;
64498;SDS011;51087;55.718;21.122;2023-05-23T05:47:13;15.30;;;3.42;;
64498;SDS011;51087;55.718;21.122;2023-05-23T05:49:39;14.07;;;3.35;;
64498;SDS011;51087;55.718;21.122;2023-05-23T05:52:07;11.02;;;3.40;;
64498;SDS011;51087;55.718;21.122;2023-05-23T05:54:33;9.13;;;3.13;;
64498;SDS011;51087;55.718;21.122;2023-05-23T05:56:58;13.50;;;3.85;;
64498;SDS011;51087;55.718;21.122;2023-05-23T05:59:24;13.38;;;3.42;;
64498;SDS011;51087;55.718;21.122;2023-05-23T06:01:50;9.02;;;3.03;;
64498;SDS011;51087;55.718;21.122;2023-05-23T06:04:16;14.15;;;3.30;;
64498;SDS011;51087;55.718;21.122;2023-05-23T06:06:42;12.80;;;3.00;;
64498;SDS011;51087;55.718;21.122;2023-05-23T06:09:07;11.15;;;3.10;;
64498;SDS011;51087;55.718;21.122;2023-05-23T06:11:33;10.52;;;3.03;;
64498;SDS011;51087;55.718;21.122;2023-05-23T06:13:58;8.30;;;2.83;;
64498;SDS011;51087;55.718;21.122;2023-05-23T06:16:24;7.22;;;2.90;;
64498;SDS011;51087;55.718;21.122;2023-05-23T06:18:49;7.80;;;2.80;;
64498;SDS011;51087;55.718;21.122;2023-05-23T06:21:14;15.15;;;2.97;;
64498;SDS011;51087;55.718;21.122;2023-05-23T06:23:40;12.35;;;2.78;;
64498;SDS011;51087;55.718;21.122;2023-05-23T06:26:05;3.47;;;2.35;;
64498;SDS011;51087;55.718;21.122;2023-05-23T06:28:36;10.07;;;2.78;;
64498;SDS011;51087;55.718;21.122;2023-05-23T06:31:03;7.18;;;2.70;;
64498;SDS011;51087;55.718;21.122;2023-05-23T06:33:28;7.47;;;2.70;;
64498;SDS011;51087;55.718;21.122;2023-05-23T06:35:55;8.98;;;2.80;;
64498;SDS011;51087;55.718;21.122;2023-05-23T06:38:21;8.45;;;2.67;;
64498;SDS011;51087;55.718;21.122;2023-05-23T06:40:46;9.05;;;2.85;;
64498;SDS011;51087;55.718;21.122;2023-05-23T06:43:12;6.38;;;2.67;;
64498;SDS011;51087;55.718;21.122;2023-05-23T06:45:37;6.65;;;2.85;;
64498;SDS011;51087;55.718;21.122;2023-05-23T06:48:03;11.25;;;2.92;;
64498;SDS011;51087;55.718;21.122;2023-05-23T06:50:28;6.60;;;2.85;;
64498;SDS011;51087;55.718;21.122;2023-05-23T06:52:54;32.78;;;3.45;;
64498;SDS011;51087;55.718;21.122;2023-05-23T06:55:20;6.07;;;2.75;;
64498;SDS011;51087;55.718;21.122;2023-05-23T06:57:45;9.18;;;2.92;;
64498;SDS011;51087;55.718;21.122;2023-05-23T07:00:11;8.32;;;3.00;;
64498;SDS011;51087;55.718;21.122;2023-05-23T07:02:37;9.20;;;2.80;;
64498;SDS011;51087;55.718;21.122;2023-05-23T07:05:03;7.57;;;2.90;;
64498;SDS011;51087;55.718;21.122;2023-05-23T07:07:29;8.68;;;3.08;;
64498;SDS011;51087;55.718;21.122;2023-05-23T07:09:54;12.18;;;3.10;;
64498;SDS011;51087;55.718;21.122;2023-05-23T07:12:20;6.13;;;2.40;;
64498;SDS011;51087;55.718;21.122;2023-05-23T07:14:45;15.35;;;2.55;;
64498;SDS011;51087;55.718;21.122;2023-05-23T07:17:11;7.93;;;2.28;;
64498;SDS011;51087;55.718;21.122;2023-05-23T07:19:36;9.10;;;2.53;;
64498;SDS011;51087;55.718;21.122;2023-05-23T07:22:01;8.35;;;2.15;;
64498;SDS011;51087;55.718;21.122;2023-05-23T07:24:27;11.23;;;2.65;;
64498;SDS011;51087;55.718;21.122;2023-05-23T07:26:52;10.38;;;2.25;;
64498;SDS011;51087;55.718;21.122;2023-05-23T07:29:18;8.35;;;2.65;;
64498;SDS011;51087;55.718;21.122;2023-05-23T07:31:43;11.10;;;2.55;;
64498;SDS011;51087;55.718;21.122;2023-05-23T07:34:09;9.65;;;2.22;;
64498;SDS011;51087;55.718;21.122;2023-05-23T07:36:34;6.07;;;2.58;;
64498;SDS011;51087;55.718;21.122;2023-05-23T07:39:01;10.43;;;3.00;;
64498;SDS011;51087;55.718;21.122;2023-05-23T07:41:27;12.18;;;2.67;;
64498;SDS011;51087;55.718;21.122;2023-05-23T07:43:52;8.93;;;2.47;;
64498;SDS011;51087;55.718;21.122;2023-05-23T07:46:18;5.85;;;2.40;;
64498;SDS011;51087;55.718;21.122;2023-05-23T07:48:44;8.70;;;3.03;;
64498;SDS011;51087;55.718;21.122;2023-05-23T07:51:09;8.05;;;2.63;;
64498;SDS011;51087;55.718;21.122;2023-05-23T07:53:34;6.22;;;2.25;;
64498;SDS011;51087;55.718;21.122;2023-05-23T07:56:04;7.40;;;2.08;;
64498;SDS011;51087;55.718;21.122;2023-05-23T07:58:30;5.47;;;2.30;;
64498;SDS011;51087;55.718;21.122;2023-05-23T08:00:55;6.57;;;2.33;;
64498;SDS011;51087;55.718;21.122;2023-05-23T08:03:22;9.23;;;2.38;;
64498;SDS011;51087;55.718;21.122;2023-05-23T08:05:47;9.80;;;2.67;;
64498;SDS011;51087;55.718;21.122;2023-05-23T08:08:13;7.38;;;2.58;;
64498;SDS011;51087;55.718;21.122;2023-05-23T08:10:38;9.35;;;2.08;;
64498;SDS011;51087;55.718;21.122;2023-05-23T08:13:04;7.10;;;1.98;;
64498;SDS011;51087;55.718;21.122;2023-05-23T08:15:31;4.88;;;2.00;;
64498;SDS011;51087;55.718;21.122;2023-05-23T08:17:57;4.25;;;2.08;;
64498;SDS011;51087;55.718;21.122;2023-05-23T08:20:24;7.95;;;2.10;;
64498;SDS011;51087;55.718;21.122;2023-05-23T08:22:56;8.13;;;2.75;;
64498;SDS011;51087;55.718;21.122;2023-05-23T08:25:22;8.90;;;2.28;;
64498;SDS011;51087;55.718;21.122;2023-05-23T08:27:48;13.80;;;2.40;;
64498;SDS011;51087;55.718;21.122;2023-05-23T08:30:15;8.18;;;2.13;;
64498;SDS011;51087;55.718;21.122;2023-05-23T08:32:40;7.75;;;2.28;;
64498;SDS011;51087;55.718;21.122;2023-05-23T08:35:06;4.90;;;2.20;;
64498;SDS011;51087;55.718;21.122;2023-05-23T08:37:32;5.45;;;2.10;;
64498;SDS011;51087;55.718;21.122;2023-05-23T08:39:57;4.80;;;2.30;;
64498;SDS011;51087;55.718;21.122;2023-05-23T08:42:22;8.77;;;2.30;;
64498;SDS011;51087;55.718;21.122;2023-05-23T08:44:48;6.45;;;2.15;;
64498;SDS011;51087;55.718;21.122;2023-05-23T08:47:13;5.72;;;2.50;;
64498;SDS011;51087;55.718;21.122;2023-05-23T08:49:41;4.82;;;2.03;;
64498;SDS011;51087;55.718;21.122;2023-05-23T08:52:08;3.42;;;2.05;;
64498;SDS011;51087;55.718;21.122;2023-05-23T08:54:37;4.15;;;2.15;;
64498;SDS011;51087;55.718;21.122;2023-05-23T08:57:02;7.30;;;2.00;;
64498;SDS011;51087;55.718;21.122;2023-05-23T08:59:28;7.10;;;2.40;;
64498;SDS011;51087;55.718;21.122;2023-05-23T09:01:55;5.13;;;2.10;;
64498;SDS011;51087;55.718;21.122;2023-05-23T09:04:22;9.00;;;1.85;;
64498;SDS011;51087;55.718;21.122;2023-05-23T09:06:47;3.83;;;2.13;;
64498;SDS011;51087;55.718;21.122;2023-05-23T09:09:13;13.18;;;3.15;;
64498;SDS011;51087;55.718;21.122;2023-05-23T09:11:38;7.68;;;2.55;;
64498;SDS011;51087;55.718;21.122;2023-05-23T09:14:05;4.93;;;2.13;;
64498;SDS011;51087;55.718;21.122;2023-05-23T09:16:32;6.38;;;2.00;;
64498;SDS011;51087;55.718;21.122;2023-05-23T09:19:10;5.43;;;2.15;;
64498;SDS011;51087;55.718;21.122;2023-05-23T09:21:41;4.13;;;2.17;;
64498;SDS011;51087;55.718;21.122;2023-05-23T09:24:07;7.72;;;2.05;;
64498;SDS011;51087;55.718;21.122;2023-05-23T09:26:33;6.07;;;2.10;;
64498;SDS011;51087;55.718;21.122;2023-05-23T09:28:59;8.10;;;2.40;;
64498;SDS011;51087;55.718;21.122;2023-05-23T09:31:27;6.35;;;2.53;;
64498;SDS011;51087;55.718;21.122;2023-05-23T09:33:56;7.00;;;2.47;;
64498;SDS011;51087;55.718;21.122;2023-05-23T09:36:23;4.65;;;2.15;;
64498;SDS011;51087;55.718;21.122;2023-05-23T09:38:53;5.80;;;2.20;;
64498;SDS011;51087;55.718;21.122;2023-05-23T09:41:19;7.50;;;2.15;;
64498;SDS011;51087;55.718;21.122;2023-05-23T09:43:49;4.25;;;2.20;;
64498;SDS011;51087;55.718;21.122;2023-05-23T09:46:18;5.80;;;2.53;;
64498;SDS011;51087;55.718;21.122;2023-05-23T09:48:45;7.50;;;2.60;;
64498;SDS011;51087;55.718;21.122;2023-05-23T09:51:17;9.43;;;2.50;;
64498;SDS011;51087;55.718;21.122;2023-05-23T09:53:45;9.75;;;2.40;;
64498;SDS011;51087;55.718;21.122;2023-05-23T09:56:11;6.13;;;2.05;;
64498;SDS011;51087;55.718;21.122;2023-05-23T09:58:37;8.93;;;2.25;;
64498;SDS011;51087;55.718;21.122;2023-05-23T10:01:03;6.32;;;3.00;;
64498;SDS011;51087;55.718;21.122;2023-05-23T10:06:25;6.53;;;1.95;;
64498;SDS011;51087;55.718;21.122;2023-05-23T10:09:06;7.50;;;1.88;;
64498;SDS011;51087;55.718;21.122;2023-05-23T10:14:04;6.60;;;1.80;;
64498;SDS011;51087;55.718;21.122;2023-05-23T10:19:34;5.95;;;2.38;;
64498;SDS011;51087;55.718;21.122;2023-05-23T10:22:08;11.70;;;2.40;;
64498;SDS011;51087;55.718;21.122;2023-05-23T10:24:34;1.40;;;1.30;;
64498;SDS011;51087;55.718;21.122;2023-05-23T10:27:01;4.60;;;1.85;;
64498;SDS011;51087;55.718;21.122;2023-05-23T10:29:28;5.05;;;2.17;;
64498;SDS011;51087;55.718;21.122;2023-05-23T10:31:53;6.88;;;2.20;;
64498;SDS011;51087;55.718;21.122;2023-05-23T10:37:00;6.10;;;1.80;;
64498;SDS011;51087;55.718;21.122;2023-05-23T10:42:18;3.22;;;2.30;;
64498;SDS011;51087;55.718;21.122;2023-05-23T10:44:52;8.80;;;2.28;;
64498;SDS011;51087;55.718;21.122;2023-05-23T10:47:26;7.65;;;2.10;;
64498;SDS011;51087;55.718;21.122;2023-05-23T10:49:55;6.38;;;2.28;;
64498;SDS011;51087;55.718;21.122;2023-05-23T10:52:22;35.53;;;6.13;;
64498;SDS011;51087;55.718;21.122;2023-05-23T10:54:52;10.45;;;2.22;;
64498;SDS011;51087;55.718;21.122;2023-05-23T10:57:20;10.15;;;2.20;;
64498;SDS011;51087;55.718;21.122;2023-05-23T10:59:50;4.63;;;2.20;;
64498;SDS011;51087;55.718;21.122;2023-05-23T11:02:25;6.93;;;1.98;;
64498;SDS011;51087;55.718;21.122;2023-05-23T11:07:39;3.90;;;1.85;;
64498;SDS011;51087;55.718;21.122;2023-05-23T11:10:08;5.78;;;2.30;;
64498;SDS011;51087;55.718;21.122;2023-05-23T11:12:36;5.00;;;2.30;;
64498;SDS011;51087;55.718;21.122;2023-05-23T11:15:17;4.63;;;2.08;;
64498;SDS011;51087;55.718;21.122;2023-05-23T11:17:52;3.08;;;1.85;;
64498;SDS011;51087;55.718;21.122;2023-05-23T11:20:20;6.85;;;2.13;;
64498;SDS011;51087;55.718;21.122;2023-05-23T11:22:58;10.05;;;2.10;;
64498;SDS011;51087;55.718;21.122;2023-05-23T11:25:44;5.82;;;1.92;;
64498;SDS011;51087;55.718;21.122;2023-05-23T11:28:12;5.60;;;2.20;;
64498;SDS011;51087;55.718;21.122;2023-05-23T11:30:38;4.72;;;2.15;;
64498;SDS011;51087;55.718;21.122;2023-05-23T11:33:05;5.45;;;2.10;;
64498;SDS011;51087;55.718;21.122;2023-05-23T11:35:47;6.53;;;2.20;;
64498;SDS011;51087;55.718;21.122;2023-05-23T11:38:16;5.80;;;2.70;;
64498;SDS011;51087;55.718;21.122;2023-05-23T11:40:43;4.60;;;2.25;;
64498;SDS011;51087;55.718;21.122;2023-05-23T11:43:13;8.25;;;2.45;;
64498;SDS011;51087;55.718;21.122;2023-05-23T11:45:40;5.55;;;2.10;;
64498;SDS011;51087;55.718;21.122;2023-05-23T11:48:10;11.15;;;2.30;;
64498;SDS011;51087;55.718;21.122;2023-05-23T11:50:49;5.93;;;2.47;;
64498;SDS011;51087;55.718;21.122;2023-05-23T11:53:16;4.80;;;2.00;;
64498;SDS011;51087;55.718;21.122;2023-05-23T11:55:48;7.45;;;2.45;;
64498;SDS011;51087;55.718;21.122;2023-05-23T11:58:25;3.85;;;2.00;;
64498;SDS011;51087;55.718;21.122;2023-05-23T12:01:08;3.80;;;2.10;;
64498;SDS011;51087;55.718;21.122;2023-05-23T12:03:43;5.05;;;2.22;;
64498;SDS011;51087;55.718;21.122;2023-05-23T12:06:17;6.20;;;2.05;;
64498;SDS011;51087;55.718;21.122;2023-05-23T12:08:43;4.13;;;2.50;;
64498;SDS011;51087;55.718;21.122;2023-05-23T12:11:08;4.35;;;2.20;;
64498;SDS011;51087;55.718;21.122;2023-05-23T12:13:34;6.55;;;1.90;;
64498;SDS011;51087;55.718;21.122;2023-05-23T12:16:00;5.13;;;2.38;;
64498;SDS011;51087;55.718;21.122;2023-05-23T12:18:27;5.63;;;2.17;;
64498;SDS011;51087;55.718;21.122;2023-05-23T12:20:54;5.22;;;2.17;;
64498;SDS011;51087;55.718;21.122;2023-05-23T12:23:23;7.38;;;2.17;;
64498;SDS011;51087;55.718;21.122;2023-05-23T12:25:52;8.32;;;2.45;;
64498;SDS011;51087;55.718;21.122;2023-05-23T12:28:18;3.13;;;2.15;;
64498;SDS011;51087;55.718;21.122;2023-05-23T12:30:45;5.35;;;2.47;;
64498;SDS011;51087;55.718;21.122;2023-05-23T12:33:11;4.88;;;1.95;;
64498;SDS011;51087;55.718;21.122;2023-05-23T12:35:37;3.33;;;2.28;;
64498;SDS011;51087;55.718;21.122;2023-05-23T12:38:06;3.83;;;2.17;;
64498;SDS011;51087;55.718;21.122;2023-05-23T12:40:32;2.83;;;1.85;;
64498;SDS011;51087;55.718;21.122;2023-05-23T12:42:59;6.80;;;2.10;;
64498;SDS011;51087;55.718;21.122;2023-05-23T12:45:32;6.18;;;2.00;;
64498;SDS011;51087;55.718;21.122;2023-05-23T12:47:58;5.93;;;2.03;;
64498;SDS011;51087;55.718;21.122;2023-05-23T12:50:24;2.33;;;1.85;;
64498;SDS011;51087;55.718;21.122;2023-05-23T12:52:50;6.10;;;2.22;;
64498;SDS011;51087;55.718;21.122;2023-05-23T12:55:16;3.63;;;1.83;;
64498;SDS011;51087;55.718;21.122;2023-05-23T12:57:41;3.17;;;2.10;;
64498;SDS011;51087;55.718;21.122;2023-05-23T13:00:07;4.75;;;1.80;;
64498;SDS011;51087;55.718;21.122;2023-05-23T13:02:33;3.83;;;2.20;;
64498;SDS011;51087;55.718;21.122;2023-05-23T13:04:59;7.03;;;2.10;;
64498;SDS011;51087;55.718;21.122;2023-05-23T13:07:24;3.47;;;2.10;;
64498;SDS011;51087;55.718;21.122;2023-05-23T13:09:50;5.05;;;1.80;;
64498;SDS011;51087;55.718;21.122;2023-05-23T13:12:15;6.38;;;2.03;;
64498;SDS011;51087;55.718;21.122;2023-05-23T13:14:41;4.75;;;2.08;;
64498;SDS011;51087;55.718;21.122;2023-05-23T13:17:06;6.75;;;2.10;;
64498;SDS011;51087;55.718;21.122;2023-05-23T13:19:31;2.38;;;1.85;;
64498;SDS011;51087;55.718;21.122;2023-05-23T13:21:57;5.32;;;1.95;;
64498;SDS011;51087;55.718;21.122;2023-05-23T13:24:24;3.95;;;2.30;;
64498;SDS011;51087;55.718;21.122;2023-05-23T13:26:49;3.10;;;2.17;;
64498;SDS011;51087;55.718;21.122;2023-05-23T13:29:15;3.17;;;1.85;;
64498;SDS011;51087;55.718;21.122;2023-05-23T13:31:40;4.18;;;2.53;;
64498;SDS011;51087;55.718;21.122;2023-05-23T13:34:06;3.63;;;2.05;;
64498;SDS011;51087;55.718;21.122;2023-05-23T13:36:31;3.95;;;2.17;;
64498;SDS011;51087;55.718;21.122;2023-05-23T13:38:57;3.92;;;2.13;;
64498;SDS011;51087;55.718;21.122;2023-05-23T13:41:23;8.38;;;2.30;;
64498;SDS011;51087;55.718;21.122;2023-05-23T13:43:48;8.07;;;2.50;;
64498;SDS011;51087;55.718;21.122;2023-05-23T13:46:14;7.68;;;2.50;;
64498;SDS011;51087;55.718;21.122;2023-05-23T13:48:39;2.83;;;2.22;;
64498;SDS011;51087;55.718;21.122;2023-05-23T13:51:05;8.43;;;2.78;;
64498;SDS011;51087;55.718;21.122;2023-05-23T13:53:30;15.65;;;3.13;;
64498;SDS011;51087;55.718;21.122;2023-05-23T13:55:56;7.57;;;2.60;;
64498;SDS011;51087;55.718;21.122;2023-05-23T13:58:21;12.10;;;2.50;;
64498;SDS011;51087;55.718;21.122;2023-05-23T14:00:47;6.18;;;2.47;;
64498;SDS011;51087;55.718;21.122;2023-05-23T14:03:12;5.65;;;2.20;;
64498;SDS011;51087;55.718;21.122;2023-05-23T14:05:39;5.20;;;2.45;;
64498;SDS011;51087;55.718;21.122;2023-05-23T14:08:05;3.92;;;2.20;;
64498;SDS011;51087;55.718;21.122;2023-05-23T14:10:30;6.15;;;2.55;;
64498;SDS011;51087;55.718;21.122;2023-05-23T14:12:57;5.53;;;2.20;;
64498;SDS011;51087;55.718;21.122;2023-05-23T14:15:22;6.43;;;2.42;;
64498;SDS011;51087;55.718;21.122;2023-05-23T14:17:48;4.25;;;2.10;;
64498;SDS011;51087;55.718;21.122;2023-05-23T14:20:19;2.97;;;2.05;;
64498;SDS011;51087;55.718;21.122;2023-05-23T14:22:44;5.50;;;2.38;;
64498;SDS011;51087;55.718;21.122;2023-05-23T14:25:10;4.22;;;2.50;;
64498;SDS011;51087;55.718;21.122;2023-05-23T14:27:35;2.60;;;2.20;;
64498;SDS011;51087;55.718;21.122;2023-05-23T14:30:01;3.58;;;2.53;;
64498;SDS011;51087;55.718;21.122;2023-05-23T14:32:26;6.90;;;2.70;;
64498;SDS011;51087;55.718;21.122;2023-05-23T14:34:52;5.22;;;2.42;;
64498;SDS011;51087;55.718;21.122;2023-05-23T14:37:17;7.82;;;2.40;;
64498;SDS011;51087;55.718;21.122;2023-05-23T14:39:42;4.25;;;2.55;;
64498;SDS011;51087;55.718;21.122;2023-05-23T14:42:08;5.28;;;2.63;;
64498;SDS011;51087;55.718;21.122;2023-05-23T14:44:33;7.10;;;2.50;;
64498;SDS011;51087;55.718;21.122;2023-05-23T14:46:59;5.53;;;2.50;;
64498;SDS011;51087;55.718;21.122;2023-05-23T14:49:24;7.10;;;2.63;;
64498;SDS011;51087;55.718;21.122;2023-05-23T14:51:49;7.28;;;2.58;;